Time;durP1;ratioP1;P1;durP2;ratioP2;P2;SDS_P1;SDS_P2;PMS_P1;PMS_P2;Temp;Humidity;BMP_temperature;BMP_pressure;BME280_temperature;BME280_humidity;BME280_pressure;Samples;Min_cycle;Max_cycle;Signal;HPM_P1;HPM_P2
2023/07/20 00:01:55;;;;;;;8.10;4.80;;;;;;;;;;10402612;28;20650;-76
2023/07/20 00:06:55;;;;;;;6.78;4.82;;;;;;;;;;10397716;28;21104;-75
2023/07/20 00:11:55;;;;;;;5.80;4.97;;;;;;;;;;10377207;28;20122;-74
2023/07/20 00:16:56;;;;;;;6.77;5.47;;;;;;;;;;10391472;28;20395;-74
2023/07/20 00:21:56;;;;;;;7.43;5.97;;;;;;;;;;10391085;28;20684;-74
2023/07/20 00:26:56;;;;;;;6.73;4.87;;;;;;;;;;10397079;28;20046;-74
2023/07/20 00:31:58;;;;;;;11.47;6.20;;;;;;;;;;10397649;28;20296;-73
2023/07/20 00:36:58;;;;;;;6.60;4.82;;;;;;;;;;10390725;28;20037;-73
2023/07/20 00:42:00;;;;;;;7.53;5.28;;;;;;;;;;10401391;28;20782;-74
2023/07/20 00:47:00;;;;;;;6.20;5.60;;;;;;;;;;10380455;28;20037;-75
2023/07/20 00:52:01;;;;;;;6.68;5.13;;;;;;;;;;10371941;28;20133;-74
2023/07/20 00:57:02;;;;;;;7.53;5.72;;;;;;;;;;10397028;28;20474;-74
2023/07/20 01:02:02;;;;;;;5.47;4.60;;;;;;;;;;10400245;28;20454;-74
2023/07/20 01:07:08;;;;;;;5.55;4.68;;;;;;;;;;10393600;28;20099;-73
2023/07/20 01:12:18;;;;;;;6.80;4.93;;;;;;;;;;10378166;28;20029;-74
2023/07/20 01:17:18;;;;;;;9.07;5.78;;;;;;;;;;10388171;28;20055;-75
2023/07/20 01:22:28;;;;;;;5.65;4.95;;;;;;;;;;10391681;28;20061;-75
2023/07/20 01:27:48;;;;;;;8.50;5.25;;;;;;;;;;10398989;28;20548;-76
2023/07/20 01:32:49;;;;;;;8.63;4.70;;;;;;;;;;10391994;28;20094;-73
2023/07/20 01:37:50;;;;;;;8.18;5.75;;;;;;;;;;10373447;28;20056;-76
2023/07/20 01:42:51;;;;;;;7.15;5.00;;;;;;;;;;10387561;28;20050;-74
2023/07/20 01:47:52;;;;;;;6.32;5.40;;;;;;;;;;10391150;28;20029;-75
2023/07/20 01:52:52;;;;;;;9.20;6.07;;;;;;;;;;10389370;28;20092;-77
2023/07/20 01:57:54;;;;;;;7.90;6.38;;;;;;;;;;10390692;28;21273;-76
2023/07/20 02:02:55;;;;;;;7.33;5.70;;;;;;;;;;10388557;28;20052;-74
2023/07/20 02:07:55;;;;;;;6.93;5.27;;;;;;;;;;10375538;28;20044;-74
2023/07/20 02:12:56;;;;;;;6.53;5.72;;;;;;;;;;10392664;28;20299;-73
2023/07/20 02:17:57;;;;;;;7.95;6.32;;;;;;;;;;10382870;28;20496;-72
2023/07/20 02:22:58;;;;;;;8.35;6.07;;;;;;;;;;10388032;28;20500;-74
2023/07/20 02:27:58;;;;;;;6.47;5.60;;;;;;;;;;10393455;28;20029;-73
2023/07/20 02:33:00;;;;;;;6.38;5.15;;;;;;;;;;10381603;28;20033;-74
2023/07/20 02:38:00;;;;;;;9.25;5.68;;;;;;;;;;10382584;28;20053;-74
2023/07/20 02:43:01;;;;;;;7.93;5.33;;;;;;;;;;10388829;28;20029;-75
2023/07/20 02:48:02;;;;;;;9.70;5.70;;;;;;;;;;10381115;28;20300;-75
2023/07/20 02:53:03;;;;;;;6.90;5.23;;;;;;;;;;10388470;28;20160;-77
2023/07/20 02:58:03;;;;;;;7.90;5.97;;;;;;;;;;10387488;28;20037;-74
2023/07/20 03:03:04;;;;;;;7.70;5.30;;;;;;;;;;10363551;28;20560;-75
2023/07/20 03:08:06;;;;;;;7.90;5.93;;;;;;;;;;10383108;28;20459;-74
2023/07/20 03:13:06;;;;;;;7.20;6.50;;;;;;;;;;10383212;28;20402;-74
2023/07/20 03:18:07;;;;;;;8.07;6.10;;;;;;;;;;10372778;28;20553;-75
2023/07/20 03:23:07;;;;;;;8.67;6.80;;;;;;;;;;10380152;28;20139;-73
2023/07/20 03:28:08;;;;;;;7.15;5.47;;;;;;;;;;10377077;28;20296;-73
2023/07/20 03:33:08;;;;;;;7.77;6.53;;;;;;;;;;10380260;28;20726;-73
2023/07/20 03:38:09;;;;;;;7.78;6.35;;;;;;;;;;10370796;28;20311;-73
2023/07/20 03:43:09;;;;;;;7.63;5.83;;;;;;;;;;10369748;28;20041;-76
2023/07/20 03:48:10;;;;;;;7.87;6.23;;;;;;;;;;10373952;28;20295;-75
2023/07/20 03:53:11;;;;;;;8.75;6.80;;;;;;;;;;10376609;28;20107;-74
2023/07/20 03:58:12;;;;;;;8.15;6.07;;;;;;;;;;10376047;28;20076;-72
2023/07/20 04:03:13;;;;;;;8.63;6.03;;;;;;;;;;10391000;28;20045;-72
2023/07/20 04:08:14;;;;;;;7.13;6.32;;;;;;;;;;10390579;28;20033;-74
2023/07/20 04:13:14;;;;;;;7.90;6.80;;;;;;;;;;10377996;28;20053;-73
2023/07/20 04:18:14;;;;;;;9.38;6.93;;;;;;;;;;10379470;28;20369;-75
2023/07/20 04:23:15;;;;;;;7.53;6.05;;;;;;;;;;10399952;28;20111;-74
2023/07/20 04:28:15;;;;;;;8.73;6.85;;;;;;;;;;10383180;28;20071;-75
2023/07/20 04:33:20;;;;;;;7.22;5.80;;;;;;;;;;10381937;28;20040;-74
2023/07/20 04:38:21;;;;;;;8.63;6.30;;;;;;;;;;10387568;28;20049;-74
2023/07/20 04:43:29;;;;;;;9.43;6.10;;;;;;;;;;10397415;28;20041;-79
2023/07/20 04:48:29;;;;;;;8.95;6.32;;;;;;;;;;10381168;28;20044;-77
2023/07/20 04:53:30;;;;;;;8.82;6.03;;;;;;;;;;10379369;28;20524;-76
2023/07/20 04:58:31;;;;;;;6.88;5.72;;;;;;;;;;10382296;28;20064;-78
2023/07/20 05:03:32;;;;;;;6.32;5.40;;;;;;;;;;10404754;28;20043;-77
2023/07/20 05:08:34;;;;;;;11.52;5.90;;;;;;;;;;10382240;28;20045;-77
2023/07/20 05:13:34;;;;;;;6.82;5.50;;;;;;;;;;10377924;28;20040;-79
2023/07/20 05:18:35;;;;;;;6.60;5.78;;;;;;;;;;10378926;28;20099;-75
2023/07/20 05:23:35;;;;;;;6.97;5.27;;;;;;;;;;10377064;28;20051;-74
2023/07/20 05:28:36;;;;;;;7.07;5.63;;;;;;;;;;10376128;28;20791;-76
2023/07/20 05:33:36;;;;;;;7.70;5.17;;;;;;;;;;10401423;28;20033;-77
2023/07/20 05:38:36;;;;;;;9.87;5.57;;;;;;;;;;10398251;28;20124;-75
2023/07/20 05:43:37;;;;;;;8.57;5.30;;;;;;;;;;10389935;28;20033;-76
2023/07/20 05:48:37;;;;;;;9.05;5.43;;;;;;;;;;10389848;28;20037;-73
2023/07/20 05:53:38;;;;;;;6.93;5.23;;;;;;;;;;10376325;28;20080;-75
2023/07/20 05:58:38;;;;;;;5.43;4.93;;;;;;;;;;10387455;28;20406;-73
2023/07/20 06:03:39;;;;;;;6.73;5.27;;;;;;;;;;10382139;28;20041;-76
2023/07/20 06:08:39;;;;;;;6.33;4.40;;;;;;;;;;10393818;28;20292;-79
2023/07/20 06:13:39;;;;;;;8.53;4.93;;;;;;;;;;10377106;28;20292;-75
2023/07/20 06:18:40;;;;;;;5.07;3.90;;;;;;;;;;10399624;28;20045;-76
2023/07/20 06:23:40;;;;;;;6.93;4.13;;;;;;;;;;10390879;28;20082;-74
2023/07/20 06:28:41;;;;;;;6.50;4.35;;;;;;;;;;10396757;28;20047;-75
2023/07/20 06:33:41;;;;;;;5.97;4.90;;;;;;;;;;10391104;28;20025;-76
2023/07/20 06:38:41;;;;;;;7.30;5.10;;;;;;;;;;10383660;28;20311;-76
2023/07/20 06:43:42;;;;;;;4.93;4.40;;;;;;;;;;10371547;28;20758;-74
2023/07/20 06:48:42;;;;;;;5.43;3.87;;;;;;;;;;10392558;28;20579;-77
2023/07/20 06:53:42;;;;;;;10.87;7.10;;;;;;;;;;10383835;28;20053;-77
2023/07/20 06:58:43;;;;;;;7.13;3.73;;;;;;;;;;10370726;28;20069;-76
2023/07/20 07:03:43;;;;;;;4.18;3.58;;;;;;;;;;10387551;28;20037;-76
2023/07/20 07:08:44;;;;;;;4.65;3.28;;;;;;;;;;10394341;28;20048;-75
2023/07/20 07:13:46;;;;;;;5.35;3.05;;;;;;;;;;10381689;28;20048;-77
2023/07/20 07:18:48;;;;;;;4.90;3.00;;;;;;;;;;10395929;28;20045;-75
2023/07/20 07:23:49;;;;;;;4.50;2.88;;;;;;;;;;10384039;28;20057;-75
2023/07/20 07:28:49;;;;;;;4.85;2.85;;;;;;;;;;10400321;28;20120;-75
2023/07/20 07:33:50;;;;;;;6.67;4.93;;;;;;;;;;10397960;28;20095;-76
2023/07/20 07:38:50;;;;;;;4.60;2.87;;;;;;;;;;10400384;28;21596;-76
2023/07/20 07:43:51;;;;;;;5.50;3.00;;;;;;;;;;10407775;28;20439;-77
2023/07/20 07:48:51;;;;;;;5.15;3.20;;;;;;;;;;10432895;28;20523;-76
2023/07/20 07:53:51;;;;;;;5.47;3.37;;;;;;;;;;10401720;28;20442;-76
2023/07/20 07:58:52;;;;;;;5.50;3.30;;;;;;;;;;10393070;28;20092;-76
2023/07/20 08:03:53;;;;;;;5.17;2.73;;;;;;;;;;10393594;28;20115;-76
2023/07/20 08:08:53;;;;;;;4.63;2.60;;;;;;;;;;10394713;28;20041;-76
2023/07/20 08:13:54;;;;;;;3.97;2.70;;;;;;;;;;10395660;28;20099;-76
2023/07/20 08:18:54;;;;;;;4.20;3.25;;;;;;;;;;10379707;28;20559;-76
2023/07/20 08:23:55;;;;;;;5.13;2.70;;;;;;;;;;10396356;28;20049;-76
2023/07/20 08:28:56;;;;;;;4.33;2.40;;;;;;;;;;10383319;28;20044;-74
2023/07/20 08:33:56;;;;;;;3.30;2.22;;;;;;;;;;10398842;28;20071;-75
2023/07/20 08:38:57;;;;;;;8.35;2.85;;;;;;;;;;10396555;28;20590;-76
2023/07/20 08:43:58;;;;;;;4.30;2.30;;;;;;;;;;10396839;28;20046;-76
2023/07/20 08:48:59;;;;;;;3.90;2.40;;;;;;;;;;10400995;28;20045;-75
2023/07/20 08:53:59;;;;;;;2.90;2.15;;;;;;;;;;10394748;28;20038;-75
2023/07/20 08:59:00;;;;;;;3.25;2.00;;;;;;;;;;10398240;28;20053;-77
2023/07/20 09:04:01;;;;;;;4.25;2.25;;;;;;;;;;10380853;28;20037;-76
2023/07/20 09:09:02;;;;;;;3.63;2.28;;;;;;;;;;10385729;28;20049;-76
2023/07/20 09:14:06;;;;;;;3.75;2.22;;;;;;;;;;10392118;28;20097;-74
2023/07/20 09:19:07;;;;;;;5.00;2.25;;;;;;;;;;10389898;28;20834;-76
2023/07/20 09:24:07;;;;;;;2.30;1.90;;;;;;;;;;10389432;28;20038;-75
2023/07/20 09:29:09;;;;;;;3.83;2.10;;;;;;;;;;10385937;28;20312;-75
2023/07/20 09:34:12;;;;;;;2.75;2.03;;;;;;;;;;10381038;28;20378;-74
2023/07/20 09:39:13;;;;;;;2.70;1.90;;;;;;;;;;10385682;28;20041;-75
2023/07/20 09:44:14;;;;;;;2.40;1.53;;;;;;;;;;10390611;28;20041;-74
2023/07/20 09:49:17;;;;;;;1.77;1.60;;;;;;;;;;10377012;28;20295;-75
2023/07/20 09:54:17;;;;;;;3.45;1.80;;;;;;;;;;10383415;28;20506;-75
2023/07/20 09:59:17;;;;;;;1.98;1.60;;;;;;;;;;10399193;28;20049;-75
2023/07/20 10:04:18;;;;;;;2.50;1.73;;;;;;;;;;10387097;28;20041;-74
2023/07/20 10:09:20;;;;;;;3.60;1.60;;;;;;;;;;10392001;28;20276;-74
2023/07/20 10:14:20;;;;;;;2.67;1.50;;;;;;;;;;10369772;28;20065;-74
2023/07/20 10:19:33;;;;;;;1.98;1.40;;;;;;;;;;10386773;28;20318;-73
2023/07/20 10:24:34;;;;;;;2.33;1.50;;;;;;;;;;10383456;28;20044;-73
2023/07/20 10:29:34;;;;;;;2.22;1.50;;;;;;;;;;10375220;28;20036;-74
2023/07/20 10:34:35;;;;;;;3.07;1.30;;;;;;;;;;10386212;28;21264;-79
2023/07/20 10:39:35;;;;;;;3.60;2.43;;;;;;;;;;10357069;28;20041;-72
2023/07/20 10:44:39;;;;;;;4.73;1.60;;;;;;;;;;10382386;28;20055;-74
2023/07/20 10:50:00;;;;;;;3.08;1.50;;;;;;;;;;10367676;28;20065;-75
2023/07/20 10:55:10;;;;;;;1.45;1.20;;;;;;;;;;10398629;28;20191;-74
2023/07/20 11:00:11;;;;;;;2.42;1.60;;;;;;;;;;10395587;28;20069;-74
2023/07/20 11:05:31;;;;;;;2.45;1.20;;;;;;;;;;10391060;28;20051;-78
2023/07/20 11:10:31;;;;;;;2.10;1.40;;;;;;;;;;10403637;28;20069;-80
2023/07/20 11:15:48;;;;;;;1.98;1.50;;;;;;;;;;10400215;28;20512;-76
2023/07/20 11:20:51;;;;;;;2.65;1.38;;;;;;;;;;10403141;28;20131;-79
2023/07/20 11:25:52;;;;;;;3.30;1.80;;;;;;;;;;10384402;28;20107;-77
2023/07/20 11:30:53;;;;;;;1.93;1.50;;;;;;;;;;10396776;28;20030;-74
2023/07/20 11:35:54;;;;;;;3.77;1.60;;;;;;;;;;10401604;28;20053;-78
2023/07/20 11:40:55;;;;;;;2.17;1.50;;;;;;;;;;10399107;28;20321;-75
2023/07/20 11:45:56;;;;;;;2.25;1.60;;;;;;;;;;10399513;28;20041;-76
2023/07/20 11:50:56;;;;;;;2.75;1.30;;;;;;;;;;10393927;28;20090;-75
2023/07/20 11:55:57;;;;;;;2.63;1.37;;;;;;;;;;10400189;28;20128;-74
2023/07/20 12:00:57;;;;;;;3.30;1.43;;;;;;;;;;10396087;28;20303;-77
2023/07/20 12:06:06;;;;;;;2.63;1.40;;;;;;;;;;10395631;28;20038;-76
2023/07/20 12:11:07;;;;;;;2.75;1.35;;;;;;;;;;10397477;28;20030;-75
2023/07/20 12:16:14;;;;;;;1.20;1.10;;;;;;;;;;10388654;28;20121;-74
2023/07/20 12:21:14;;;;;;;1.58;1.10;;;;;;;;;;10387104;28;20483;-75
2023/07/20 12:26:15;;;;;;;2.33;1.33;;;;;;;;;;10404366;28;20040;-74
2023/07/20 12:31:15;;;;;;;2.50;1.50;;;;;;;;;;10398674;28;20044;-76
2023/07/20 12:36:16;;;;;;;2.93;1.33;;;;;;;;;;10397819;28;20042;-75
2023/07/20 12:41:17;;;;;;;1.30;1.20;;;;;;;;;;10396441;28;20300;-74
2023/07/20 12:46:17;;;;;;;1.80;1.48;;;;;;;;;;10372394;28;20165;-75
2023/07/20 12:51:18;;;;;;;1.67;1.43;;;;;;;;;;10402454;28;20096;-75
2023/07/20 12:56:19;;;;;;;2.57;1.60;;;;;;;;;;10406764;28;20204;-77
2023/07/20 13:01:19;;;;;;;3.50;1.60;;;;;;;;;;10395264;28;20077;-75
2023/07/20 13:06:19;;;;;;;2.67;1.40;;;;;;;;;;10405253;28;20051;-78
2023/07/20 13:11:20;;;;;;;2.30;1.30;;;;;;;;;;10401599;28;20072;-79
2023/07/20 13:16:20;;;;;;;1.63;1.53;;;;;;;;;;10408093;28;20114;-77
2023/07/20 13:21:22;;;;;;;2.13;1.50;;;;;;;;;;10388936;28;20037;-80
2023/07/20 13:26:22;;;;;;;2.47;1.70;;;;;;;;;;10382127;28;20037;-78
2023/07/20 13:31:23;;;;;;;2.37;1.63;;;;;;;;;;10398806;28;20025;-80
2023/07/20 13:36:23;;;;;;;1.93;1.40;;;;;;;;;;10406592;28;20065;-78
2023/07/20 13:41:23;;;;;;;2.23;2.00;;;;;;;;;;10404183;28;20644;-80
2023/07/20 13:46:24;;;;;;;3.33;2.07;;;;;;;;;;10390468;28;20040;-78
2023/07/20 13:51:24;;;;;;;2.00;1.40;;;;;;;;;;10399070;28;20080;-79
2023/07/20 13:56:25;;;;;;;1.93;1.43;;;;;;;;;;10438383;28;20076;-77
2023/07/20 14:06:49;;;;;;;3.15;1.55;;;;;;;;;;11049968;22;20334;-75
2023/07/20 14:11:50;;;;;;;1.90;1.43;;;;;;;;;;10409988;28;20033;-73
2023/07/20 14:16:50;;;;;;;3.07;1.60;;;;;;;;;;10416478;28;20053;-77
2023/07/20 14:21:50;;;;;;;4.43;2.30;;;;;;;;;;10442215;28;20049;-80
2023/07/20 14:26:51;;;;;;;4.23;1.53;;;;;;;;;;10434513;28;20032;-76
2023/07/20 14:31:52;;;;;;;1.97;1.53;;;;;;;;;;10456571;28;20021;-77
2023/07/20 14:36:53;;;;;;;1.87;1.60;;;;;;;;;;10450625;28;20052;-77
2023/07/20 14:41:53;;;;;;;2.77;1.73;;;;;;;;;;10456340;28;20450;-77
2023/07/20 14:46:54;;;;;;;4.47;1.60;;;;;;;;;;10451754;28;20138;-77
2023/07/20 14:51:55;;;;;;;3.27;1.50;;;;;;;;;;10460571;28;20345;-82
2023/07/20 14:56:56;;;;;;;2.23;1.33;;;;;;;;;;10451018;28;20032;-80
2023/07/20 15:01:56;;;;;;;1.63;1.37;;;;;;;;;;10435457;28;20037;-79
2023/07/20 15:06:57;;;;;;;1.50;1.27;;;;;;;;;;10453212;28;20036;-79
2023/07/20 15:11:57;;;;;;;2.07;1.40;;;;;;;;;;10446225;28;20108;-77
2023/07/20 15:16:57;;;;;;;1.50;1.40;;;;;;;;;;10459271;28;20052;-77
2023/07/20 15:21:58;;;;;;;2.57;1.83;;;;;;;;;;10439442;28;20094;-80
2023/07/20 15:26:59;;;;;;;2.77;1.63;;;;;;;;;;10415678;28;20044;-80
2023/07/20 15:32:01;;;;;;;3.47;1.80;;;;;;;;;;10467048;28;20041;-82
2023/07/20 15:37:43;;;;;;;1.73;1.30;;;;;;;;;;10465123;28;20104;-79
2023/07/20 15:42:44;;;;;;;4.00;1.60;;;;;;;;;;10450863;28;20029;-81
2023/07/20 15:47:45;;;;;;;2.80;1.77;;;;;;;;;;10447369;28;20037;-83
2023/07/20 15:52:50;;;;;;;2.78;1.50;;;;;;;;;;10458044;28;20041;-84
2023/07/20 15:57:50;;;;;;;4.55;1.65;;;;;;;;;;10465100;28;20029;-83
2023/07/20 16:02:52;;;;;;;1.77;1.20;;;;;;;;;;10466601;28;20089;-81
2023/07/20 16:08:00;;;;;;;2.60;1.63;;;;;;;;;;10467670;28;20091;-79
2023/07/20 16:13:03;;;;;;;1.92;1.35;;;;;;;;;;10455486;28;20029;-82
2023/07/20 16:18:03;;;;;;;2.23;1.40;;;;;;;;;;10439578;28;20037;-80
2023/07/20 16:23:05;;;;;;;3.07;2.60;;;;;;;;;;10428362;28;20030;-81
2023/07/20 16:28:07;;;;;;;2.53;1.50;;;;;;;;;;10432918;28;20050;-79
2023/07/20 16:33:07;;;;;;;2.83;1.33;;;;;;;;;;10432884;28;20048;-80
2023/07/20 16:38:08;;;;;;;2.10;1.57;;;;;;;;;;10445080;28;20037;-84
2023/07/20 16:43:12;;;;;;;2.27;1.50;;;;;;;;;;10426166;28;20033;-81
2023/07/20 16:48:27;;;;;;;2.70;1.50;;;;;;;;;;10442049;28;20041;-81
2023/07/20 16:53:29;;;;;;;1.52;1.33;;;;;;;;;;10455416;22;20046;-83
2023/07/20 16:58:34;;;;;;;2.22;1.65;;;;;;;;;;10416528;28;20044;-81
2023/07/20 17:03:37;;;;;;;2.35;1.83;;;;;;;;;;10414334;28;20056;-82
2023/07/20 17:08:38;;;;;;;2.00;1.40;;;;;;;;;;10401563;28;20037;-80
2023/07/20 17:13:38;;;;;;;1.80;1.60;;;;;;;;;;10419500;28;20041;-81
2023/07/20 17:18:39;;;;;;;1.80;1.33;;;;;;;;;;10370389;28;20091;-82
2023/07/20 17:23:39;;;;;;;3.05;1.83;;;;;;;;;;10388663;28;20045;-80
2023/07/20 17:28:40;;;;;;;2.40;1.70;;;;;;;;;;10391224;28;20090;-78
2023/07/20 17:33:40;;;;;;;1.75;1.40;;;;;;;;;;10360794;28;20050;-81
2023/07/20 17:38:42;;;;;;;2.75;1.30;;;;;;;;;;10372292;28;20557;-74
2023/07/20 17:43:42;;;;;;;2.70;1.50;;;;;;;;;;10364056;28;20037;-78
2023/07/20 17:48:42;;;;;;;2.63;1.37;;;;;;;;;;10379981;28;20399;-79
2023/07/20 17:53:43;;;;;;;1.70;1.20;;;;;;;;;;10381870;28;20029;-78
2023/07/20 17:58:43;;;;;;;2.63;1.70;;;;;;;;;;10380817;28;20041;-78
2023/07/20 18:03:44;;;;;;;2.97;1.37;;;;;;;;;;10385860;28;20030;-78
2023/07/20 18:08:45;;;;;;;3.08;1.55;;;;;;;;;;10390840;28;20036;-77
2023/07/20 18:13:45;;;;;;;2.67;1.52;;;;;;;;;;10409163;28;20030;-79
2023/07/20 18:18:45;;;;;;;2.20;1.70;;;;;;;;;;10394812;28;20045;-78
2023/07/20 18:23:46;;;;;;;4.00;1.63;;;;;;;;;;10400824;28;20292;-77
2023/07/20 18:28:46;;;;;;;1.80;1.40;;;;;;;;;;10392777;28;20039;-77
2023/07/20 18:33:47;;;;;;;3.13;1.70;;;;;;;;;;10371049;28;20579;-74
2023/07/20 18:38:47;;;;;;;2.60;1.88;;;;;;;;;;10390853;28;21292;-75
2023/07/20 18:43:47;;;;;;;2.40;1.70;;;;;;;;;;10376571;28;20038;-78
2023/07/20 18:48:48;;;;;;;2.58;1.80;;;;;;;;;;10388919;28;20048;-78
2023/07/20 18:53:48;;;;;;;3.33;2.40;;;;;;;;;;10371181;23;20565;-78
2023/07/20 18:58:49;;;;;;;3.43;2.17;;;;;;;;;;10377998;28;20916;-76
2023/07/20 19:03:49;;;;;;;3.63;1.90;;;;;;;;;;10394110;28;20296;-76
2023/07/20 19:08:50;;;;;;;2.20;1.50;;;;;;;;;;10363294;28;20034;-78
2023/07/20 19:13:50;;;;;;;2.83;1.60;;;;;;;;;;10386852;28;20076;-78
2023/07/20 19:18:51;;;;;;;2.20;1.90;;;;;;;;;;10385343;28;20157;-79
2023/07/20 19:23:51;;;;;;;3.87;2.50;;;;;;;;;;10388884;28;20120;-78
2023/07/20 19:28:51;;;;;;;2.40;1.90;;;;;;;;;;10383039;28;20076;-78
2023/07/20 19:33:52;;;;;;;2.63;1.70;;;;;;;;;;10384156;28;20064;-75
2023/07/20 19:38:52;;;;;;;2.88;2.22;;;;;;;;;;10384838;28;20053;-76
2023/07/20 19:43:53;;;;;;;3.30;2.13;;;;;;;;;;10386848;28;20050;-75
2023/07/20 19:48:53;;;;;;;3.05;2.03;;;;;;;;;;10382933;28;20045;-75
2023/07/20 19:53:53;;;;;;;2.67;2.20;;;;;;;;;;10376291;28;20042;-76
2023/07/20 19:58:54;;;;;;;2.23;2.00;;;;;;;;;;10397086;28;20081;-73
2023/07/20 20:03:55;;;;;;;2.80;2.30;;;;;;;;;;10367966;28;20128;-74
2023/07/20 20:08:56;;;;;;;3.03;2.40;;;;;;;;;;10399540;28;20057;-72
2023/07/20 20:13:57;;;;;;;3.15;2.40;;;;;;;;;;10409958;28;20045;-71
2023/07/20 20:18:57;;;;;;;4.27;2.57;;;;;;;;;;10430261;28;20033;-75
2023/07/20 20:23:57;;;;;;;4.47;2.70;;;;;;;;;;10409962;28;20276;-74
2023/07/20 20:28:58;;;;;;;3.37;2.30;;;;;;;;;;10399621;28;20045;-76
2023/07/20 20:33:58;;;;;;;3.63;2.77;;;;;;;;;;10410661;28;20060;-80
2023/07/20 20:38:59;;;;;;;4.40;2.50;;;;;;;;;;10395555;28;20040;-80
2023/07/20 20:43:59;;;;;;;3.00;2.70;;;;;;;;;;10417302;28;20037;-81
2023/07/20 20:49:03;;;;;;;4.07;2.80;;;;;;;;;;10413346;28;20049;-80
2023/07/20 20:54:03;;;;;;;3.70;2.65;;;;;;;;;;10423247;28;20049;-82
2023/07/20 20:59:04;;;;;;;4.90;2.70;;;;;;;;;;10420266;28;20041;-81
2023/07/20 21:04:05;;;;;;;3.03;2.38;;;;;;;;;;10410678;28;20029;-82
2023/07/20 21:09:06;;;;;;;3.47;2.67;;;;;;;;;;10421070;28;20033;-82
2023/07/20 21:14:06;;;;;;;4.03;2.58;;;;;;;;;;10391994;28;20426;-78
2023/07/20 21:19:08;;;;;;;2.97;2.67;;;;;;;;;;10397587;28;20082;-78
2023/07/20 21:24:08;;;;;;;6.55;2.70;;;;;;;;;;10393187;28;20382;-79
2023/07/20 21:29:09;;;;;;;2.63;2.30;;;;;;;;;;10406246;28;20033;-78
2023/07/20 21:34:09;;;;;;;2.70;2.40;;;;;;;;;;10385040;28;20399;-80
2023/07/20 21:39:10;;;;;;;3.42;2.58;;;;;;;;;;10404704;28;20052;-80
2023/07/20 21:44:10;;;;;;;4.30;2.67;;;;;;;;;;10404426;28;20028;-80
2023/07/20 21:49:13;;;;;;;3.77;2.93;;;;;;;;;;10402527;28;20033;-82
2023/07/20 21:54:15;;;;;;;4.93;2.80;;;;;;;;;;10401398;28;20060;-80
2023/07/20 21:59:16;;;;;;;4.43;3.10;;;;;;;;;;10396160;28;20053;-80
2023/07/20 22:04:17;;;;;;;3.95;3.10;;;;;;;;;;10375731;28;20053;-82
2023/07/20 22:09:17;;;;;;;7.50;2.70;;;;;;;;;;10396710;28;20124;-80
2023/07/20 22:14:18;;;;;;;3.10;2.80;;;;;;;;;;10379645;28;20446;-79
2023/07/20 22:19:18;;;;;;;2.70;2.50;;;;;;;;;;10391094;28;20467;-81
2023/07/20 22:24:19;;;;;;;3.42;2.70;;;;;;;;;;10392907;28;20079;-80
2023/07/20 22:29:19;;;;;;;2.90;2.70;;;;;;;;;;10394425;28;20084;-79
2023/07/20 22:34:19;;;;;;;2.60;2.40;;;;;;;;;;10384892;28;20415;-79
2023/07/20 22:39:20;;;;;;;3.37;2.80;;;;;;;;;;10386354;28;20398;-81
2023/07/20 22:44:20;;;;;;;4.17;3.20;;;;;;;;;;10393339;28;20042;-81
2023/07/20 22:49:21;;;;;;;3.05;2.70;;;;;;;;;;10381873;28;20033;-80
2023/07/20 22:54:21;;;;;;;5.05;2.83;;;;;;;;;;10400219;28;20028;-80
2023/07/20 22:59:22;;;;;;;2.50;2.30;;;;;;;;;;10404904;28;20107;-82
2023/07/20 23:04:23;;;;;;;3.45;2.88;;;;;;;;;;10395797;28;20472;-81
2023/07/20 23:09:23;;;;;;;5.15;2.72;;;;;;;;;;10390695;28;20037;-83
2023/07/20 23:14:23;;;;;;;4.17;2.70;;;;;;;;;;10393612;28;20038;-81
2023/07/20 23:19:30;;;;;;;2.72;2.50;;;;;;;;;;10397806;28;20735;-81
2023/07/20 23:24:30;;;;;;;3.42;2.80;;;;;;;;;;10384490;28;20390;-80
2023/07/20 23:29:30;;;;;;;3.90;3.03;;;;;;;;;;10417152;28;20069;-81
2023/07/20 23:34:34;;;;;;;2.70;2.30;;;;;;;;;;10399821;28;20033;-81
2023/07/20 23:39:34;;;;;;;3.38;2.67;;;;;;;;;;10391755;28;20041;-81
2023/07/20 23:44:35;;;;;;;3.25;2.90;;;;;;;;;;10393216;28;20103;-82
2023/07/20 23:49:36;;;;;;;3.40;3.10;;;;;;;;;;10389566;28;20048;-80
2023/07/20 23:54:37;;;;;;;3.20;2.67;;;;;;;;;;10396080;28;20331;-82
2023/07/20 23:59:37;;;;;;;2.97;2.65;;;;;;;;;;10406137;28;20109;-81
